Time;durP1;ratioP1;P1;durP2;ratioP2;P2;SDS_P1;SDS_P2;PMS_P1;PMS_P2;Temp;Humidity;BMP_temperature;BMP_pressure;BME280_temperature;BME280_humidity;BME280_pressure;Samples;Min_cycle;Max_cycle;Signal;HPM_P1;HPM_P2
2021/07/21 00:03:25;;;;;;;12.77;8.98;;;17.20;95.70;;;;;;4896576;29;20128;-84
2021/07/21 00:06:41;;;;;;;14.85;9.35;;;17.20;95.60;;;;;;4916841;28;20042;-84
2021/07/21 00:20:14;;;;;;;14.40;9.43;;;17.10;95.40;;;;;;4993364;28;20080;-85
2021/07/21 00:22:37;;;;;;;16.88;10.65;;;17.10;95.70;;;;;;5014187;28;20033;-84
2021/07/21 00:25:40;;;;;;;;;;;;;;;;;;;;;
2021/07/21 00:28:29;;;;;;;15.75;9.25;;;17.00;95.80;;;;;;5035671;28;20029;-84
2021/07/21 00:31:15;;;;;;;14.07;8.73;;;17.00;95.80;;;;;;4952997;28;20038;-85
2021/07/21 00:33:59;;;;;;;14.25;8.55;;;16.90;95.90;;;;;;4959523;28;20034;-84
2021/07/21 00:41:24;;;;;;;16.30;9.48;;;16.90;95.80;;;;;;4871005;29;20095;-84
2021/07/21 00:44:51;;;;;;;;;;;;;;;;;;;;;
2021/07/21 00:47:42;;;;;;;13.13;8.63;;;16.80;96.20;;;;;;4892653;28;20038;-85
2021/07/21 00:51:11;;;;;;;;;;;;;;;;;;;;;
2021/07/21 00:54:54;;;;;;;;;;;;;;;;;;;;;
2021/07/21 01:01:34;;;;;;;14.88;8.60;;;16.60;96.10;;;;;;4920976;29;20610;-86
2021/07/21 01:04:49;;;;;;;;;;;;;;;;;;;;;
2021/07/21 01:08:22;;;;;;;12.80;9.20;;;16.60;96.30;;;;;;4909011;29;20040;-85
2021/07/21 01:15:15;;;;;;;;;;;;;;;;;;;;;
2021/07/21 01:18:27;;;;;;;13.05;8.88;;;16.40;96.50;;;;;;4882925;29;20520;-85
2021/07/21 01:21:45;;;;;;;14.50;9.13;;;16.40;96.30;;;;;;4855906;29;20021;-84
2021/07/21 01:25:17;;;;;;;14.60;9.43;;;16.40;96.50;;;;;;4865820;29;20179;-85
2021/07/21 01:28:02;;;;;;;;;;;16.30;96.50;;;;;;4890760;29;20064;-85
2021/07/21 01:37:35;;;;;;;;;;;;;;;;;;;;;
2021/07/21 01:40:03;;;;;;;15.60;10.13;;;16.30;96.70;;;;;;5037084;22;20441;-83
2021/07/21 01:42:28;;;;;;;15.45;9.10;;;16.30;97.20;;;;;;4992908;28;20040;-84
2021/07/21 01:44:54;;;;;;;13.07;8.68;;;16.20;96.70;;;;;;4976660;28;20408;-84
2021/07/21 01:47:22;;;;;;;13.77;8.52;;;16.30;96.70;;;;;;4996461;28;20036;-84
2021/07/21 01:49:49;;;;;;;15.70;9.13;;;16.20;97.00;;;;;;5011856;28;20035;-84
2021/07/21 01:52:15;;;;;;;13.65;8.15;;;16.20;96.80;;;;;;4996303;28;20025;-84
2021/07/21 01:54:41;;;;;;;17.08;8.95;;;16.20;96.70;;;;;;4994648;28;20028;-84
2021/07/21 01:57:07;;;;;;;11.57;8.32;;;16.20;97.00;;;;;;4992998;28;20389;-83
2021/07/21 01:59:33;;;;;;;13.85;8.77;;;16.20;97.40;;;;;;5014031;28;20052;-84
2021/07/21 02:02:02;;;;;;;16.65;9.00;;;16.20;96.80;;;;;;4991958;28;20088;-84
2021/07/21 02:04:28;;;;;;;16.23;9.05;;;16.20;96.60;;;;;;4989734;28;20048;-83
2021/07/21 02:06:53;;;;;;;14.07;9.27;;;16.20;97.10;;;;;;4975824;28;20497;-83
2021/07/21 02:09:19;;;;;;;13.55;8.85;;;16.20;97.20;;;;;;5008453;28;20507;-84
2021/07/21 02:11:44;;;;;;;14.82;9.65;;;16.10;97.00;;;;;;4999974;28;20542;-83
2021/07/21 02:14:10;;;;;;;16.58;10.07;;;16.10;97.00;;;;;;4986489;28;20041;-84
2021/07/21 02:16:36;;;;;;;15.98;9.80;;;16.10;97.20;;;;;;4992244;28;20033;-84
2021/07/21 02:19:03;;;;;;;14.88;8.82;;;16.10;97.10;;;;;;5026565;28;20643;-84
2021/07/21 02:21:29;;;;;;;16.35;9.13;;;16.00;96.80;;;;;;4987374;28;20026;-84
2021/07/21 02:23:54;;;;;;;14.48;9.35;;;16.10;97.00;;;;;;5009067;28;20175;-84
2021/07/21 02:26:20;;;;;;;13.25;9.35;;;16.00;96.70;;;;;;4997756;28;20405;-83
2021/07/21 02:28:46;;;;;;;13.30;8.65;;;16.00;96.70;;;;;;4999402;28;20044;-84
2021/07/21 02:31:16;;;;;;;15.85;9.18;;;15.90;96.80;;;;;;4992197;28;20113;-84
2021/07/21 02:33:52;;;;;;;15.20;9.27;;;15.90;97.00;;;;;;4973413;28;20672;-85
2021/07/21 02:36:18;;;;;;;14.20;8.65;;;15.90;97.00;;;;;;4987789;28;20119;-85
2021/07/21 02:38:44;;;;;;;15.88;9.15;;;15.90;97.30;;;;;;4986615;28;20030;-84
2021/07/21 02:41:10;;;;;;;15.10;8.60;;;15.90;97.20;;;;;;5008751;28;20033;-83
2021/07/21 02:43:35;;;;;;;18.83;8.52;;;15.80;96.70;;;;;;4982410;28;20586;-84
2021/07/21 02:46:01;;;;;;;14.95;9.18;;;15.80;97.30;;;;;;4985781;28;20064;-84
2021/07/21 02:48:26;;;;;;;15.93;8.85;;;15.80;97.20;;;;;;4979048;28;20424;-84
2021/07/21 02:50:56;;;;;;;16.08;9.05;;;15.70;97.00;;;;;;5009070;28;20036;-84
2021/07/21 02:53:31;;;;;;;17.05;8.82;;;15.70;97.20;;;;;;4982561;28;20056;-84
2021/07/21 02:56:01;;;;;;;13.38;8.80;;;15.70;97.60;;;;;;4991787;28;20026;-85
2021/07/21 02:59:05;;;;;;;14.75;8.70;;;15.80;97.60;;;;;;4992424;28;20033;-84
2021/07/21 03:01:33;;;;;;;12.52;8.55;;;15.70;97.20;;;;;;4944471;28;20038;-83
2021/07/21 03:03:58;;;;;;;15.48;8.88;;;15.70;97.30;;;;;;4958683;28;20572;-84
2021/07/21 03:06:25;;;;;;;10.68;7.82;;;15.70;96.90;;;;;;4980604;28;20047;-84
2021/07/21 03:08:50;;;;;;;14.57;8.77;;;15.70;96.90;;;;;;5027629;28;20021;-83
2021/07/21 03:11:16;;;;;;;15.95;8.60;;;15.70;97.20;;;;;;5014769;28;20534;-84
2021/07/21 03:13:43;;;;;;;14.25;9.02;;;15.60;97.20;;;;;;5015261;28;20784;-84
2021/07/21 03:16:09;;;;;;;17.52;9.55;;;15.60;97.40;;;;;;4979151;28;20033;-83
2021/07/21 03:18:35;;;;;;;12.88;8.35;;;15.60;97.60;;;;;;4994766;28;20056;-85
2021/07/21 03:21:00;;;;;;;15.05;8.52;;;15.60;97.70;;;;;;4996331;28;20416;-85
2021/07/21 03:23:27;;;;;;;14.45;8.73;;;15.60;97.60;;;;;;4991543;28;20025;-84
2021/07/21 03:25:54;;;;;;;16.33;9.30;;;15.50;97.20;;;;;;5002614;28;20036;-83
2021/07/21 03:28:20;;;;;;;13.40;8.90;;;15.50;97.40;;;;;;4999684;28;20490;-84
2021/07/21 03:30:46;;;;;;;13.57;8.80;;;15.50;97.30;;;;;;4982386;28;20561;-84
2021/07/21 03:33:11;;;;;;;15.55;9.48;;;15.50;97.40;;;;;;5011438;28;20033;-83
2021/07/21 03:35:36;;;;;;;18.02;9.13;;;15.50;97.40;;;;;;4999309;28;20044;-84
2021/07/21 03:38:02;;;;;;;14.45;8.60;;;15.50;97.60;;;;;;4978424;28;20099;-84
2021/07/21 03:40:29;;;;;;;16.42;9.27;;;15.40;97.30;;;;;;4984443;28;20520;-84
2021/07/21 03:42:54;;;;;;;15.43;9.48;;;15.40;97.70;;;;;;4975371;28;20026;-84
2021/07/21 03:45:24;;;;;;;15.25;9.13;;;15.40;97.50;;;;;;4991867;28;20034;-84
2021/07/21 03:47:49;;;;;;;14.15;9.25;;;15.40;97.80;;;;;;4991602;28;20493;-84
2021/07/21 03:50:20;;;;;;;16.30;10.00;;;15.40;97.60;;;;;;4984882;28;20021;-83
2021/07/21 03:52:46;;;;;;;14.90;9.15;;;15.40;97.60;;;;;;4982867;28;20044;-84
2021/07/21 03:55:13;;;;;;;14.13;9.00;;;15.30;97.50;;;;;;4990645;28;20037;-84
2021/07/21 03:57:38;;;;;;;11.38;8.38;;;15.30;97.60;;;;;;5003655;28;20042;-83
2021/07/21 04:00:09;;;;;;;14.90;9.35;;;15.30;97.50;;;;;;4977581;28;20171;-84
2021/07/21 04:02:34;;;;;;;15.35;8.80;;;15.30;97.50;;;;;;4986185;28;20500;-84
2021/07/21 04:05:00;;;;;;;15.18;8.85;;;15.30;97.50;;;;;;4994007;28;20045;-84
2021/07/21 04:07:25;;;;;;;13.18;8.70;;;15.30;97.70;;;;;;4981262;28;20033;-83
2021/07/21 04:09:51;;;;;;;13.55;8.73;;;15.30;97.70;;;;;;4994275;28;20025;-84
2021/07/21 04:12:18;;;;;;;14.98;8.13;;;15.30;97.90;;;;;;4992519;28;20026;-84
2021/07/21 04:14:44;;;;;;;15.07;8.38;;;15.20;97.40;;;;;;4993595;28;20057;-83
2021/07/21 04:17:09;;;;;;;12.80;8.40;;;15.30;97.50;;;;;;4999740;28;20057;-85
2021/07/21 04:19:35;;;;;;;13.50;8.60;;;15.30;97.80;;;;;;5005052;28;20495;-84
2021/07/21 04:22:00;;;;;;;15.10;9.10;;;15.30;97.50;;;;;;5010355;28;20040;-83
2021/07/21 04:24:26;;;;;;;15.45;8.73;;;15.30;97.70;;;;;;4994163;28;20535;-84
2021/07/21 04:26:52;;;;;;;16.27;8.48;;;15.30;97.90;;;;;;4993325;28;20492;-84
2021/07/21 04:29:20;;;;;;;13.10;8.60;;;15.30;97.80;;;;;;4977677;28;20618;-83
2021/07/21 04:31:45;;;;;;;13.65;7.97;;;15.30;97.70;;;;;;4978070;28;20029;-83
2021/07/21 04:34:11;;;;;;;13.27;8.73;;;15.30;97.70;;;;;;4958583;28;20566;-83
2021/07/21 04:36:38;;;;;;;16.23;8.85;;;15.30;98.00;;;;;;4983990;28;20030;-83
2021/07/21 04:39:04;;;;;;;14.63;8.35;;;15.30;97.70;;;;;;4984352;28;20036;-85
2021/07/21 04:41:30;;;;;;;15.07;9.18;;;15.30;97.70;;;;;;4984078;28;20326;-84
2021/07/21 04:43:55;;;;;;;16.10;8.98;;;15.30;97.60;;;;;;4993934;28;20511;-83
2021/07/21 04:46:21;;;;;;;14.32;8.50;;;15.30;97.60;;;;;;4993540;28;20044;-85
2021/07/21 04:48:47;;;;;;;11.43;7.50;;;15.30;97.60;;;;;;4993604;28;20709;-83
2021/07/21 04:51:17;;;;;;;12.55;8.13;;;15.40;98.00;;;;;;4977788;28;20148;-84
2021/07/21 04:53:42;;;;;;;16.42;9.55;;;15.40;97.90;;;;;;5009388;28;20042;-84
2021/07/21 04:56:08;;;;;;;11.98;8.75;;;15.40;97.90;;;;;;5009821;28;20034;-83
2021/07/21 04:58:33;;;;;;;11.98;8.15;;;15.40;97.90;;;;;;4993130;28;20049;-84
2021/07/21 05:00:59;;;;;;;13.27;8.88;;;15.40;97.90;;;;;;4993376;28;20530;-84
2021/07/21 05:03:24;;;;;;;13.48;9.32;;;15.50;97.90;;;;;;5009243;28;20022;-85
2021/07/21 05:05:50;;;;;;;14.38;9.00;;;15.50;98.00;;;;;;4993397;28;20045;-85
2021/07/21 05:08:15;;;;;;;13.15;8.52;;;15.60;98.10;;;;;;4976159;28;20030;-84
2021/07/21 05:10:43;;;;;;;13.25;8.60;;;15.60;97.90;;;;;;5009747;28;20065;-84
2021/07/21 05:13:09;;;;;;;14.68;8.85;;;15.60;97.90;;;;;;5009405;28;20026;-84
2021/07/21 05:15:35;;;;;;;16.27;9.10;;;15.70;98.00;;;;;;5009523;28;20405;-84
2021/07/21 05:18:00;;;;;;;14.20;9.27;;;15.70;98.00;;;;;;5009307;28;20109;-83
2021/07/21 05:20:26;;;;;;;13.50;8.88;;;15.70;98.10;;;;;;5009295;28;20574;-83
2021/07/21 05:22:51;;;;;;;12.00;8.75;;;15.80;98.20;;;;;;5008781;28;20029;-84
2021/07/21 05:25:17;;;;;;;13.57;9.32;;;15.80;98.20;;;;;;5009792;28;20038;-84
2021/07/21 05:27:43;;;;;;;14.48;9.95;;;15.80;98.20;;;;;;4976883;28;20195;-84
2021/07/21 05:30:09;;;;;;;13.07;8.75;;;15.90;98.30;;;;;;4976849;28;20690;-84
2021/07/21 05:32:35;;;;;;;14.25;9.02;;;15.90;98.30;;;;;;4992980;28;20026;-84
2021/07/21 05:35:00;;;;;;;13.52;8.75;;;15.90;98.50;;;;;;4992935;28;20031;-84
2021/07/21 05:37:26;;;;;;;14.30;8.65;;;16.00;98.50;;;;;;4992151;28;20053;-84
2021/07/21 05:39:51;;;;;;;13.25;8.55;;;16.00;98.50;;;;;;4990805;28;20075;-84
2021/07/21 05:42:17;;;;;;;13.32;9.00;;;16.10;98.50;;;;;;4993278;28;20040;-86
2021/07/21 05:44:42;;;;;;;17.55;8.95;;;16.10;98.40;;;;;;5009675;28;20064;-85
2021/07/21 05:47:08;;;;;;;13.02;8.40;;;16.10;98.30;;;;;;4978237;28;20057;-84
2021/07/21 05:49:33;;;;;;;19.17;9.38;;;16.20;98.40;;;;;;4976472;28;20065;-86
2021/07/21 05:52:01;;;;;;;12.50;8.68;;;16.20;98.30;;;;;;5009322;28;20029;-86
2021/07/21 05:54:27;;;;;;;14.55;9.48;;;16.20;98.30;;;;;;5008688;28;20025;-85
2021/07/21 05:56:52;;;;;;;14.25;9.15;;;16.30;98.40;;;;;;5009267;28;20552;-85
2021/07/21 05:59:18;;;;;;;15.48;9.40;;;16.30;98.30;;;;;;4992672;28;20021;-85
2021/07/21 06:01:43;;;;;;;12.57;9.15;;;16.40;98.10;;;;;;4992933;28;20021;-85
2021/07/21 06:04:10;;;;;;;13.43;9.50;;;16.40;98.00;;;;;;4973312;28;20044;-85
2021/07/21 06:06:36;;;;;;;13.80;8.75;;;16.40;98.10;;;;;;4989855;28;20539;-85
2021/07/21 06:09:02;;;;;;;16.60;9.15;;;16.50;98.20;;;;;;4973147;28;20042;-84
2021/07/21 06:11:28;;;;;;;15.23;9.43;;;16.50;98.00;;;;;;4989935;28;20125;-84
2021/07/21 06:13:57;;;;;;;13.48;8.70;;;16.50;97.90;;;;;;5008120;28;20829;-84
2021/07/21 06:16:23;;;;;;;16.00;8.52;;;16.60;98.00;;;;;;5009683;28;20064;-84
2021/07/21 06:18:48;;;;;;;14.73;9.25;;;16.70;98.00;;;;;;5008297;28;20108;-84
2021/07/21 06:21:14;;;;;;;17.00;9.23;;;16.70;98.10;;;;;;4992158;28;20029;-85
2021/07/21 06:23:39;;;;;;;15.55;8.85;;;16.80;98.10;;;;;;5009207;28;20512;-84
2021/07/21 06:26:05;;;;;;;22.85;8.70;;;16.80;98.10;;;;;;5010058;28;20025;-84
2021/07/21 06:28:31;;;;;;;14.23;9.00;;;16.80;97.80;;;;;;5010807;28;20029;-85
2021/07/21 06:30:56;;;;;;;13.90;8.88;;;16.90;97.70;;;;;;4978291;28;20479;-84
2021/07/21 06:33:22;;;;;;;14.70;8.82;;;16.90;97.70;;;;;;4978560;28;20025;-86
2021/07/21 06:35:47;;;;;;;13.30;8.73;;;17.00;97.60;;;;;;4977936;28;20038;-85
2021/07/21 06:38:13;;;;;;;14.02;9.13;;;17.00;97.50;;;;;;5010383;28;20079;-85
2021/07/21 06:40:39;;;;;;;15.93;8.40;;;17.00;97.70;;;;;;5011867;28;20029;-84
2021/07/21 06:43:05;;;;;;;14.02;8.63;;;17.10;97.70;;;;;;4996114;28;20040;-84
2021/07/21 06:45:30;;;;;;;17.20;9.00;;;17.10;97.90;;;;;;5008257;28;20028;-84
2021/07/21 06:47:56;;;;;;;14.10;8.85;;;17.20;98.00;;;;;;5015305;28;20132;-85
2021/07/21 06:50:23;;;;;;;16.05;8.95;;;17.20;97.70;;;;;;4986614;28;20068;-85
2021/07/21 06:52:48;;;;;;;12.43;8.90;;;17.20;97.80;;;;;;4996275;28;20072;-85
2021/07/21 06:55:14;;;;;;;11.38;8.40;;;17.30;97.70;;;;;;5012225;28;20026;-85
2021/07/21 06:57:40;;;;;;;13.52;7.70;;;17.40;97.50;;;;;;4995651;28;20045;-85
2021/07/21 07:00:06;;;;;;;15.65;8.13;;;17.50;97.40;;;;;;5012277;28;20107;-85
2021/07/21 07:02:31;;;;;;;14.52;7.65;;;17.50;97.20;;;;;;4995824;28;20056;-85
2021/07/21 07:04:57;;;;;;;13.65;8.13;;;17.60;96.80;;;;;;5011770;28;20033;-85
2021/07/21 07:07:35;;;;;;;12.48;7.38;;;17.60;96.70;;;;;;5010994;28;20029;-84
2021/07/21 07:10:01;;;;;;;14.80;7.97;;;17.60;96.90;;;;;;4979047;28;20500;-85
2021/07/21 07:12:26;;;;;;;16.85;8.20;;;17.70;96.70;;;;;;4994694;28;20044;-85
2021/07/21 07:14:52;;;;;;;15.20;8.57;;;17.70;96.90;;;;;;4978441;28;20128;-84
2021/07/21 07:17:18;;;;;;;12.43;8.13;;;17.80;96.90;;;;;;4978293;28;20132;-85
2021/07/21 07:19:43;;;;;;;11.95;6.78;;;17.80;96.70;;;;;;4978689;28;20022;-84
2021/07/21 07:22:09;;;;;;;15.10;7.53;;;17.80;96.00;;;;;;4978503;28;20032;-84
2021/07/21 07:24:34;;;;;;;10.77;6.78;;;17.90;95.50;;;;;;4978601;28;20028;-84
2021/07/21 07:27:01;;;;;;;10.20;6.65;;;17.90;95.30;;;;;;5011867;28;20060;-84
2021/07/21 07:29:26;;;;;;;9.93;6.82;;;18.00;94.90;;;;;;5011192;28;20032;-84
2021/07/21 07:31:52;;;;;;;10.38;6.75;;;18.00;95.40;;;;;;4995419;28;20029;-84
2021/07/21 07:34:18;;;;;;;10.07;6.35;;;18.10;95.50;;;;;;4995108;28;20025;-84
2021/07/21 07:36:44;;;;;;;10.50;6.88;;;18.10;95.90;;;;;;5010374;28;20554;-84
2021/07/21 07:39:09;;;;;;;9.50;6.15;;;18.10;95.60;;;;;;5011012;28;20045;-85
2021/07/21 07:41:36;;;;;;;10.23;5.97;;;18.20;94.70;;;;;;5011309;28;20683;-85
2021/07/21 13:39:39;;;;;;;15.98;11.45;;;23.50;70.90;;;;;;5026004;28;20052;-83
2021/07/21 13:42:05;;;;;;;14.35;10.55;;;23.40;64.90;;;;;;4993029;28;20400;-84
2021/07/21 13:44:32;;;;;;;17.50;12.43;;;23.40;68.20;;;;;;5002208;23;20069;-82
2021/07/21 13:47:04;;;;;;;14.50;11.05;;;23.50;67.70;;;;;;4993928;28;20025;-82
2021/07/21 13:49:38;;;;;;;15.73;10.77;;;23.50;67.30;;;;;;4994440;28;20404;-82
2021/07/21 13:52:05;;;;;;;18.77;12.13;;;23.60;71.60;;;;;;4994148;28;20037;-82
2021/07/21 13:54:32;;;;;;;17.63;11.60;;;23.60;71.80;;;;;;4994543;28;20021;-82
2021/07/21 13:57:02;;;;;;;17.70;11.43;;;23.70;71.40;;;;;;5010614;28;20434;-82
2021/07/21 13:59:27;;;;;;;15.32;11.43;;;23.70;70.60;;;;;;5010487;28;20033;-82
2021/07/21 14:01:55;;;;;;;14.70;11.45;;;23.80;71.90;;;;;;5010689;28;20099;-82
2021/07/21 14:04:21;;;;;;;15.75;12.13;;;23.90;72.40;;;;;;4993380;28;20026;-82
2021/07/21 14:06:46;;;;;;;15.98;11.90;;;24.00;73.50;;;;;;4991290;28;20025;-82
2021/07/21 14:09:13;;;;;;;15.90;11.55;;;24.10;69.30;;;;;;4974350;28;20485;-82
2021/07/21 14:11:38;;;;;;;18.33;13.68;;;24.20;69.60;;;;;;4959673;28;20631;-82
2021/07/21 14:14:04;;;;;;;17.65;14.38;;;24.20;65.60;;;;;;4991991;28;20057;-82
2021/07/21 14:16:30;;;;;;;22.40;16.50;;;24.30;66.80;;;;;;5004721;28;20183;-82
2021/07/21 14:18:55;;;;;;;21.67;17.13;;;24.30;68.60;;;;;;5010372;28;20033;-82
2021/07/21 14:21:21;;;;;;;24.10;17.25;;;24.40;70.10;;;;;;4999442;28;20084;-82
2021/07/21 14:23:47;;;;;;;20.23;16.45;;;24.40;69.70;;;;;;4990947;28;20108;-82
2021/07/21 14:26:12;;;;;;;25.63;17.33;;;24.40;69.70;;;;;;4975030;28;20030;-82
2021/07/21 14:28:38;;;;;;;21.75;15.90;;;24.40;68.30;;;;;;5007988;28;20033;-82
2021/07/21 14:31:03;;;;;;;20.00;15.50;;;24.50;68.30;;;;;;4985972;28;20041;-82
2021/07/21 14:33:29;;;;;;;20.77;16.95;;;24.50;69.50;;;;;;4975775;28;20026;-83
2021/07/21 14:35:55;;;;;;;22.27;18.40;;;24.50;65.90;;;;;;4971911;28;20034;-82
2021/07/21 14:38:21;;;;;;;21.30;17.25;;;24.70;67.40;;;;;;4990583;28;20080;-83
2021/07/21 14:40:46;;;;;;;21.48;17.05;;;24.70;65.40;;;;;;5007754;28;20029;-83
2021/07/21 14:43:12;;;;;;;20.55;16.90;;;24.80;66.40;;;;;;4988598;28;20038;-83
2021/07/21 14:45:37;;;;;;;24.00;17.60;;;24.90;68.10;;;;;;5005197;28;20072;-83
2021/07/21 14:48:04;;;;;;;26.33;18.38;;;25.00;62.40;;;;;;4978617;28;20124;-83
2021/07/21 14:50:29;;;;;;;21.60;16.73;;;25.00;57.20;;;;;;4979500;28;20030;-82
2021/07/21 14:52:55;;;;;;;21.25;16.67;;;25.20;59.60;;;;;;4996066;28;20033;-82
2021/07/21 14:55:23;;;;;;;20.90;15.13;;;25.40;59.70;;;;;;4979419;28;20052;-82
2021/07/21 14:57:49;;;;;;;18.40;14.15;;;25.50;58.10;;;;;;4996637;28;20029;-82
2021/07/21 15:00:15;;;;;;;17.40;14.93;;;25.60;58.30;;;;;;5001505;28;20119;-82
2021/07/21 15:02:40;;;;;;;19.00;13.90;;;25.80;57.40;;;;;;4999757;28;20054;-82
2021/07/21 15:05:06;;;;;;;19.33;14.35;;;25.90;56.90;;;;;;4996292;28;20061;-82
2021/07/21 15:07:32;;;;;;;17.17;13.57;;;25.90;57.70;;;;;;4991445;28;20022;-82
2021/07/21 15:09:57;;;;;;;15.93;13.40;;;25.90;57.90;;;;;;4993063;28;20033;-82
2021/07/21 15:12:23;;;;;;;17.35;13.90;;;25.80;59.40;;;;;;4994397;28;20031;-82
2021/07/21 15:14:48;;;;;;;18.88;13.77;;;25.80;58.30;;;;;;4978179;28;20501;-82
2021/07/21 15:17:14;;;;;;;16.38;13.75;;;25.80;59.70;;;;;;4993465;28;20146;-83
2021/07/21 15:19:42;;;;;;;16.80;13.35;;;26.20;60.60;;;;;;4977320;28;20031;-82
2021/07/21 15:22:08;;;;;;;16.75;13.30;;;27.00;57.10;;;;;;4976778;28;20029;-82
2021/07/21 15:24:34;;;;;;;20.70;12.35;;;28.00;53.90;;;;;;4963384;28;20036;-82
2021/07/21 15:26:59;;;;;;;14.80;11.85;;;28.90;52.30;;;;;;4996762;28;20129;-82
2021/07/21 15:29:25;;;;;;;14.80;12.20;;;29.90;51.30;;;;;;4980170;28;20591;-82
2021/07/21 15:31:50;;;;;;;20.10;12.50;;;30.50;49.10;;;;;;4964116;28;20045;-82
2021/07/21 15:34:17;;;;;;;13.32;10.65;;;31.10;45.70;;;;;;4979998;28;20153;-82
2021/07/21 15:36:42;;;;;;;12.52;10.70;;;31.60;44.10;;;;;;4979965;28;20045;-82
2021/07/21 15:39:12;;;;;;;15.35;11.43;;;31.90;43.10;;;;;;4980103;28;20100;-82
2021/07/21 15:41:38;;;;;;;13.02;10.52;;;31.50;41.80;;;;;;4980144;28;20107;-82
2021/07/21 15:44:04;;;;;;;13.73;10.95;;;30.90;44.70;;;;;;4963076;28;20560;-82
2021/07/21 15:46:30;;;;;;;15.93;11.80;;;30.30;46.50;;;;;;4979566;28;20112;-82
2021/07/21 15:48:55;;;;;;;15.07;11.70;;;29.80;47.70;;;;;;4995971;28;20034;-82
2021/07/21 15:51:21;;;;;;;16.40;11.05;;;29.80;47.10;;;;;;4996075;28;20060;-82
2021/07/21 15:53:46;;;;;;;14.07;11.48;;;30.20;46.30;;;;;;4980527;28;20274;-82
2021/07/21 15:56:12;;;;;;;17.10;11.52;;;30.70;45.40;;;;;;4979874;28;20026;-82
2021/07/21 15:58:37;;;;;;;18.15;12.32;;;31.10;42.10;;;;;;5010647;28;20022;-82
2021/07/21 16:01:03;;;;;;;13.68;11.63;;;31.50;42.40;;;;;;4995344;28;20029;-82
2021/07/21 16:03:28;;;;;;;19.48;11.85;;;31.70;40.00;;;;;;4996162;28;20026;-83
2021/07/21 16:05:54;;;;;;;18.20;11.85;;;31.90;41.50;;;;;;4963678;28;20473;-82
2021/07/21 16:08:19;;;;;;;15.52;11.77;;;31.90;40.50;;;;;;4979418;28;20125;-82
2021/07/21 16:10:45;;;;;;;13.65;10.70;;;31.70;39.50;;;;;;4963396;28;20025;-82
2021/07/21 16:13:11;;;;;;;11.27;10.07;;;31.20;41.40;;;;;;4996370;28;20034;-82
2021/07/21 16:15:37;;;;;;;16.42;11.15;;;30.60;43.00;;;;;;4978828;28;20072;-82
2021/07/21 16:18:02;;;;;;;12.50;10.73;;;30.10;42.50;;;;;;4994442;28;20041;-82
2021/07/21 16:20:28;;;;;;;15.55;11.57;;;29.60;43.80;;;;;;4979696;28;20030;-82
2021/07/21 16:22:53;;;;;;;14.57;11.20;;;29.20;43.90;;;;;;4979418;28;20033;-81
2021/07/21 16:25:20;;;;;;;13.25;9.57;;;28.90;44.90;;;;;;4963646;28;20033;-82
2021/07/21 16:27:45;;;;;;;11.90;9.45;;;28.80;45.00;;;;;;4995419;28;20081;-82
2021/07/21 16:30:11;;;;;;;13.55;10.98;;;28.70;45.50;;;;;;4979498;28;20038;-82
2021/07/21 16:32:37;;;;;;;16.48;10.73;;;28.60;47.40;;;;;;4980036;28;20086;-83
2021/07/21 16:35:07;;;;;;;14.63;10.95;;;28.30;45.80;;;;;;4978072;28;20103;-82
2021/07/21 16:37:32;;;;;;;13.37;10.63;;;28.10;46.50;;;;;;4962629;28;20029;-82
2021/07/21 16:39:58;;;;;;;17.13;10.52;;;27.90;45.80;;;;;;4994613;28;20351;-82
2021/07/21 16:42:23;;;;;;;14.38;10.85;;;27.70;48.00;;;;;;4979250;28;20734;-82
2021/07/21 16:44:49;;;;;;;13.43;10.80;;;27.50;49.40;;;;;;5013768;28;20041;-82
2021/07/21 16:47:14;;;;;;;14.65;11.07;;;27.30;49.20;;;;;;4994862;28;20029;-82
2021/07/21 16:49:40;;;;;;;12.55;10.85;;;27.10;50.80;;;;;;4962721;28;20085;-82
2021/07/21 16:52:06;;;;;;;13.60;10.60;;;26.90;51.50;;;;;;4979162;28;20492;-83
2021/07/21 16:54:31;;;;;;;15.57;12.38;;;26.80;52.30;;;;;;4978338;28;20508;-82
2021/07/21 16:56:57;;;;;;;18.45;11.95;;;26.70;51.00;;;;;;4995116;28;20522;-82
2021/07/21 16:59:22;;;;;;;13.20;10.73;;;26.60;51.90;;;;;;4978649;28;20030;-82
2021/07/21 17:01:49;;;;;;;14.32;11.10;;;26.60;53.40;;;;;;4978437;28;20022;-82
2021/07/21 17:04:14;;;;;;;15.77;11.07;;;26.50;53.70;;;;;;4978405;28;20480;-82
2021/07/21 17:06:40;;;;;;;20.13;12.35;;;26.50;51.40;;;;;;4962222;28;20040;-82
2021/07/21 17:09:05;;;;;;;14.23;11.70;;;26.50;52.50;;;;;;4961497;28;20033;-82
2021/07/21 17:11:31;;;;;;;16.05;12.10;;;26.50;51.60;;;;;;4968119;28;20484;-82
2021/07/21 17:13:56;;;;;;;14.32;11.27;;;26.50;52.70;;;;;;4991123;28;20038;-82
2021/07/21 17:16:22;;;;;;;16.20;11.82;;;26.40;51.60;;;;;;4973546;28;20046;-82
2021/07/21 17:18:48;;;;;;;17.67;11.15;;;26.30;52.00;;;;;;4957966;28;20030;-82
2021/07/21 17:21:13;;;;;;;16.25;12.07;;;26.20;51.70;;;;;;4959056;28;20023;-82
2021/07/21 17:23:39;;;;;;;15.23;11.00;;;26.10;54.70;;;;;;4979106;28;20033;-82
2021/07/21 17:26:04;;;;;;;12.80;11.00;;;26.00;54.20;;;;;;4995854;28;20037;-82
2021/07/21 17:28:30;;;;;;;18.10;12.07;;;25.90;54.60;;;;;;4979259;28;20033;-82
2021/07/21 17:30:55;;;;;;;15.48;12.27;;;25.80;55.00;;;;;;5029902;28;20124;-82
2021/07/21 17:33:21;;;;;;;14.43;11.32;;;25.70;54.80;;;;;;4995306;28;20044;-82
2021/07/21 17:35:47;;;;;;;16.35;12.02;;;25.60;57.60;;;;;;4970789;28;20042;-82
2021/07/21 17:38:12;;;;;;;14.93;11.15;;;25.50;57.40;;;;;;4958153;28;20030;-82
2021/07/21 17:40:38;;;;;;;14.93;12.55;;;25.50;56.40;;;;;;4955916;28;20037;-82
2021/07/21 17:43:04;;;;;;;16.50;12.05;;;25.40;57.80;;;;;;4994294;28;20025;-82
2021/07/21 17:45:29;;;;;;;15.05;11.73;;;25.30;58.50;;;;;;5013118;28;20040;-82
2021/07/21 17:47:58;;;;;;;13.30;10.68;;;25.30;57.30;;;;;;5013694;28;20059;-82
2021/07/21 17:50:23;;;;;;;16.75;11.32;;;25.20;57.90;;;;;;5012727;28;20029;-82
2021/07/21 17:52:49;;;;;;;15.95;11.55;;;25.20;57.70;;;;;;4963282;28;20040;-82
2021/07/21 17:55:14;;;;;;;16.42;11.82;;;25.10;58.30;;;;;;4995932;28;20033;-82
2021/07/21 17:57:40;;;;;;;17.75;10.82;;;25.10;58.20;;;;;;5001980;28;20034;-81
2021/07/21 18:00:07;;;;;;;15.65;11.25;;;25.00;58.20;;;;;;4997356;28;20028;-82
2021/07/21 18:02:33;;;;;;;13.02;9.50;;;25.00;59.90;;;;;;5016881;28;20604;-81
2021/07/21 18:04:58;;;;;;;14.68;9.60;;;24.90;60.00;;;;;;4995014;28;20029;-82
2021/07/21 18:07:24;;;;;;;17.65;10.98;;;24.90;59.70;;;;;;5010994;28;20031;-82
2021/07/21 18:15:14;;;;;;;14.52;10.55;;;24.70;62.60;;;;;;5085673;28;20790;-80
2021/07/21 18:17:40;;;;;;;15.02;10.98;;;24.70;63.60;;;;;;5084025;28;20090;-80
2021/07/21 18:20:06;;;;;;;18.25;10.65;;;24.60;63.20;;;;;;5089103;28;20478;-80
2021/07/21 18:22:32;;;;;;;14.10;10.60;;;24.60;66.10;;;;;;5085143;28;20107;-81
2021/07/21 18:24:57;;;;;;;16.83;11.45;;;24.50;66.60;;;;;;5091030;28;20087;-80
2021/07/21 18:27:23;;;;;;;17.25;11.35;;;24.50;65.20;;;;;;5088206;28;20101;-79
2021/07/21 18:29:48;;;;;;;16.90;10.20;;;24.40;68.80;;;;;;5085997;28;20032;-80
2021/07/21 18:32:14;;;;;;;15.07;11.98;;;24.40;65.90;;;;;;5067072;28;20397;-81
2021/07/21 18:34:39;;;;;;;15.05;11.82;;;24.30;66.00;;;;;;5063365;28;20064;-79
2021/07/21 18:37:05;;;;;;;13.48;10.68;;;24.20;67.70;;;;;;5064975;28;20031;-80
2021/07/21 18:39:30;;;;;;;14.77;11.30;;;24.20;68.10;;;;;;5067895;28;20063;-80
2021/07/21 18:41:56;;;;;;;13.70;11.40;;;24.10;69.00;;;;;;5084486;28;20500;-79
2021/07/21 18:44:21;;;;;;;19.88;12.55;;;24.00;69.40;;;;;;5082829;28;20039;-78
2021/07/21 18:46:47;;;;;;;23.10;11.55;;;23.90;70.10;;;;;;5072821;28;20483;-79
2021/07/21 18:49:12;;;;;;;18.02;11.98;;;23.80;70.70;;;;;;5078133;28;20044;-81
2021/07/21 18:51:38;;;;;;;20.02;11.98;;;23.70;71.20;;;;;;5064400;28;20029;-82
2021/07/21 18:54:04;;;;;;;16.20;11.75;;;23.70;71.30;;;;;;5066728;28;20091;-81
2021/07/21 18:56:30;;;;;;;14.65;10.95;;;23.60;70.30;;;;;;5052901;28;20021;-81
2021/07/21 18:58:56;;;;;;;14.35;11.32;;;23.50;71.60;;;;;;5053732;28;21062;-81
2021/07/21 19:01:21;;;;;;;15.57;12.02;;;23.40;72.30;;;;;;5068968;28;20059;-82
2021/07/21 19:03:47;;;;;;;20.17;11.45;;;23.30;73.30;;;;;;5049880;28;20144;-82
2021/07/21 19:06:12;;;;;;;16.92;12.00;;;23.20;72.30;;;;;;5080540;28;20058;-82
2021/07/21 19:08:38;;;;;;;17.70;12.07;;;23.10;74.10;;;;;;5088632;28;20332;-82
2021/07/21 19:11:06;;;;;;;15.98;12.32;;;23.10;74.40;;;;;;5056125;28;20036;-82
2021/07/21 19:13:32;;;;;;;14.52;11.70;;;22.90;75.10;;;;;;5068668;28;20024;-82
2021/07/21 19:15:58;;;;;;;16.27;12.27;;;22.90;75.70;;;;;;5073445;28;20029;-81
2021/07/21 19:18:23;;;;;;;17.45;13.00;;;22.80;76.30;;;;;;5071836;28;20117;-82
2021/07/21 19:20:49;;;;;;;17.70;13.43;;;22.70;78.80;;;;;;5073309;28;20070;-81